createdAt,value
2022-12-19T00:02:02.843Z,102465.85
2022-12-19T00:07:05.697Z,102464.31
2022-12-19T00:12:15.894Z,102454.06
2022-12-19T00:17:21.744Z,102442.73
2022-12-19T00:22:24.647Z,102440.63
2022-12-19T00:27:27.360Z,102437.48
2022-12-19T00:32:30.211Z,102430.52
2022-12-19T00:37:33.050Z,102432.96
2022-12-19T00:42:35.853Z,102427.54
2022-12-19T00:47:38.543Z,102422.86
2022-12-19T00:52:41.235Z,102424.02
2022-12-19T00:57:43.943Z,102419.38
2022-12-19T01:02:46.957Z,102419.70
2022-12-19T01:07:49.819Z,102407.09
2022-12-19T01:12:52.625Z,102403.23
2022-12-19T01:17:55.329Z,102401.70
2022-12-19T01:23:00.176Z,102398.55
2022-12-19T01:28:04.226Z,102398.50
2022-12-19T01:33:09.053Z,102390.74
2022-12-19T01:38:17.387Z,102384.89
2022-12-19T01:43:21.860Z,102378.58
2022-12-19T01:48:29.246Z,102378.33
2022-12-19T01:53:37.349Z,102366.87
2022-12-19T01:58:51.030Z,102363.94
2022-12-19T02:04:02.626Z,102352.94
2022-12-19T02:09:05.357Z,102349.67
2022-12-19T02:14:08.103Z,102353.38
2022-12-19T02:19:41.760Z,102351.66
2022-12-19T02:25:12.411Z,102342.88
2022-12-19T02:30:33.926Z,102335.67
2022-12-19T02:35:45.086Z,102328.95
2022-12-19T02:41:21.860Z,102322.59
2022-12-19T02:46:25.645Z,102319.30
2022-12-19T02:51:28.594Z,102307.83
2022-12-19T02:57:09.781Z,102291.95
2022-12-19T03:02:25.886Z,102279.96
2022-12-19T03:07:42.436Z,102271.83
2022-12-19T03:12:59.770Z,102269.09
2022-12-19T03:18:02.603Z,102269.63
2022-12-19T03:23:05.915Z,102252.04
2022-12-19T03:28:20.672Z,102245.00
2022-12-19T03:33:25.013Z,102238.45
2022-12-19T03:38:28.413Z,102241.05
2022-12-19T03:43:32.879Z,102251.90
2022-12-19T03:48:49.080Z,102259.84
2022-12-19T03:53:57.943Z,102259.83
2022-12-19T03:59:09.961Z,102251.13
2022-12-19T04:04:14.202Z,102250.61
2022-12-19T04:09:22.404Z,102256.42
2022-12-19T04:14:46.014Z,102267.51
2022-12-19T04:20:01.465Z,102264.18
2022-12-19T04:25:10.048Z,102262.96
2022-12-19T04:30:16.424Z,102258.30
2022-12-19T04:35:19.320Z,102251.86
2022-12-19T04:40:22.032Z,102247.02
2022-12-19T04:45:24.715Z,102241.23
2022-12-19T04:50:28.039Z,102236.39
2022-12-19T04:55:30.981Z,102230.72
2022-12-19T05:00:34.203Z,102237.45
2022-12-19T05:05:37.280Z,102231.36
2022-12-19T05:10:40.071Z,102225.48
2022-12-19T05:15:43.428Z,102231.42
2022-12-19T05:20:49.029Z,102219.64
2022-12-19T05:25:52.168Z,102211.80
2022-12-19T05:31:04.335Z,102205.91
2022-12-19T05:36:09.135Z,102200.55
2022-12-19T05:41:16.152Z,102196.23
2022-12-19T05:46:19.631Z,102195.47
2022-12-19T05:51:22.549Z,102195.90
2022-12-19T05:56:25.254Z,102192.52
2022-12-19T06:01:28.495Z,102185.05
2022-12-19T06:06:31.257Z,102178.09
2022-12-19T06:11:34.056Z,102177.17
2022-12-19T06:16:36.810Z,102174.11
2022-12-19T06:21:45.511Z,102172.01
2022-12-19T06:26:50.951Z,102171.89
2022-12-19T06:31:53.722Z,102170.13
2022-12-19T06:36:56.481Z,102165.71
2022-12-19T06:42:18.308Z,102170.94
2022-12-19T06:47:23.046Z,102180.91
2022-12-19T06:52:25.851Z,102182.30
2022-12-19T06:57:29.181Z,102180.27
2022-12-19T07:02:32.850Z,102176.66
2022-12-19T07:07:39.131Z,102172.81
2022-12-19T07:12:42.175Z,102169.33
2022-12-19T07:17:44.926Z,102168.86
2022-12-19T07:22:48.682Z,102166.29
2022-12-19T07:27:53.350Z,102166.34
2022-12-19T07:32:56.645Z,102160.51
2022-12-19T07:38:06.961Z,102156.37
2022-12-19T07:43:10.025Z,102157.14
2022-12-19T07:48:20.176Z,102144.98
2022-12-19T07:53:23.122Z,102141.10
2022-12-19T07:58:25.854Z,102135.77
2022-12-19T08:03:28.884Z,102129.55
2022-12-19T08:08:33.067Z,102116.10
2022-12-19T08:13:40.855Z,102113.86
2022-12-19T08:18:46.145Z,102105.42
2022-12-19T08:23:48.904Z,102091.98
2022-12-19T08:28:57.076Z,102095.05
2022-12-19T08:34:00.729Z,102090.02
2022-12-19T08:39:07.385Z,102084.99
2022-12-19T08:44:11.670Z,102080.86
2022-12-19T08:49:15.584Z,102078.20
2022-12-19T08:54:18.354Z,102073.51
2022-12-19T08:59:30.563Z,102064.69
2022-12-19T09:06:03.630Z,102063.71
2022-12-19T09:09:57.163Z,102047.69
2022-12-19T09:14:59.924Z,102038.77
2022-12-19T09:20:02.706Z,102029.11
2022-12-19T09:25:06.162Z,102024.39
2022-12-19T09:30:12.837Z,102006.21
2022-12-19T09:35:15.773Z,102003.63
2022-12-19T09:40:20.537Z,101994.39
2022-12-19T09:45:56.122Z,101969.42
2022-12-19T09:51:16.939Z,101952.82
2022-12-19T09:56:21.171Z,101959.99
2022-12-19T10:01:32.584Z,101945.52
2022-12-19T10:07:15.773Z,101922.36
2022-12-19T10:12:37.905Z,101896.88
2022-12-19T10:18:06.100Z,101894.30
2022-12-19T10:23:29.342Z,101881.58
2022-12-19T10:28:44.345Z,101880.59
2022-12-19T10:34:24.536Z,101883.89
2022-12-19T10:39:43.060Z,101864.95
2022-12-19T10:44:48.976Z,101856.42
2022-12-19T10:49:51.983Z,101840.02
2022-12-19T10:54:54.777Z,101817.44
2022-12-19T10:59:57.487Z,101795.45
2022-12-19T11:05:00.473Z,101802.90
2022-12-19T11:12:21.542Z,101789.08
2022-12-19T11:21:55.541Z,101779.17
2022-12-19T11:29:46.426Z,101770.71
2022-12-19T11:30:47.664Z,101764.77
2022-12-19T11:32:40.345Z,101760.64
2022-12-19T11:37:56.551Z,101742.83
2022-12-19T11:48:43.827Z,101696.90
2022-12-19T11:54:24.502Z,101685.38
2022-12-19T11:59:36.854Z,101678.17
2022-12-19T12:05:06.839Z,101678.88
2022-12-19T12:12:08.959Z,101665.98
2022-12-19T12:28:06.203Z,101650.71
2022-12-19T12:31:14.156Z,101662.79
2022-12-19T12:32:00.571Z,101660.54
2022-12-19T12:35:31.721Z,101655.05
2022-12-19T12:38:36.298Z,101664.50
2022-12-19T12:43:47.864Z,101648.34
2022-12-19T12:48:57.323Z,101636.27
2022-12-19T12:54:07.809Z,101621.98
2022-12-19T12:59:28.252Z,101605.33
2022-12-19T13:04:41.150Z,101611.60
2022-12-19T13:09:44.930Z,101608.40
2022-12-19T13:14:52.664Z,101598.38
2022-12-19T13:19:58.256Z,101591.29
2022-12-19T13:25:01.759Z,101586.78
2022-12-19T13:30:08.156Z,101565.13
2022-12-19T13:36:22.987Z,101559.42
2022-12-19T13:40:53.936Z,101555.64
2022-12-19T13:46:20.750Z,101531.31
2022-12-19T13:51:23.857Z,101521.07
2022-12-19T13:56:30.477Z,101507.03
2022-12-19T14:01:36.604Z,101504.14
2022-12-19T14:06:43.052Z,101499.95
2022-12-19T14:12:27.346Z,101496.89
2022-12-19T14:17:14.529Z,101494.12
2022-12-19T14:22:24.662Z,101476.42
2022-12-19T14:28:26.134Z,101474.15
2022-12-19T14:33:45.212Z,101479.86
2022-12-19T14:39:22.830Z,101462.20
2022-12-19T14:52:08.189Z,101465.27
2022-12-19T14:54:25.031Z,101475.45
2022-12-19T14:56:11.597Z,101464.05
2022-12-19T15:01:09.742Z,101445.75
2022-12-19T15:07:05.806Z,101425.84
2022-12-19T15:13:47.275Z,101425.11
2022-12-19T15:17:26.553Z,101407.31
2022-12-19T15:22:29.263Z,101398.94
2022-12-19T15:27:32.478Z,101375.81
2022-12-19T15:32:35.284Z,101378.37
2022-12-19T15:37:37.974Z,101372.31
2022-12-19T15:42:41.586Z,101374.02
2022-12-19T15:47:44.654Z,101368.73
2022-12-19T15:52:47.818Z,101353.23
2022-12-19T15:57:56.651Z,101350.13
2022-12-19T16:08:26.240Z,101337.90
2022-12-19T16:13:32.411Z,101332.14
2022-12-19T16:18:35.825Z,101323.11
2022-12-19T16:23:38.614Z,101303.51
2022-12-19T16:28:41.464Z,101292.59
2022-12-19T16:33:44.203Z,101277.02
2022-12-19T16:38:47.429Z,101271.80
2022-12-19T16:43:50.647Z,101267.77
2022-12-19T16:48:53.360Z,101264.95
2022-12-19T16:54:00.614Z,101266.53
2022-12-19T16:59:11.267Z,101257.73
2022-12-19T17:04:19.988Z,101258.40
2022-12-19T17:09:24.846Z,101249.91
2022-12-19T17:14:31.853Z,101252.23
2022-12-19T17:19:39.182Z,101259.86
2022-12-19T17:24:43.796Z,101258.77
2022-12-19T17:29:47.398Z,101247.42
2022-12-19T17:34:50.418Z,101239.61
2022-12-19T17:39:53.212Z,101239.95
2022-12-19T17:44:56.132Z,101228.89
2022-12-19T17:49:59.676Z,101227.02
2022-12-19T17:55:22.367Z,101219.52
2022-12-19T18:00:30.694Z,101204.60
2022-12-19T18:05:37.068Z,101199.40
2022-12-19T18:10:40.530Z,101200.02
2022-12-19T18:15:44.153Z,101196.35
2022-12-19T18:20:47.153Z,101196.05
2022-12-19T18:25:54.739Z,101182.30
2022-12-19T18:31:22.454Z,101153.56
2022-12-19T18:36:27.919Z,101136.23
2022-12-19T18:41:30.660Z,101128.13
2022-12-19T18:46:34.399Z,101118.80
2022-12-19T18:51:37.299Z,101105.17
2022-12-19T18:56:40.134Z,101104.96
2022-12-19T19:01:46.700Z,101098.98
2022-12-19T19:06:52.662Z,101094.05
2022-12-19T19:11:55.663Z,101092.74
2022-12-19T19:16:58.585Z,101089.89
2022-12-19T19:22:01.576Z,101097.07
2022-12-19T19:27:04.379Z,101082.95
2022-12-19T19:32:07.496Z,101058.79
2022-12-19T19:37:14.158Z,101061.27
2022-12-19T19:42:18.785Z,101051.90
2022-12-19T19:47:26.731Z,101030.89
2022-12-19T19:52:29.595Z,101009.32
2022-12-19T19:57:32.356Z,101005.30
2022-12-19T20:02:35.829Z,100993.08
2022-12-19T20:07:38.827Z,100990.02
2022-12-19T20:12:41.583Z,100980.30
2022-12-19T20:17:44.429Z,100968.89
2022-12-19T20:22:48.034Z,100951.02
2022-12-19T20:27:50.767Z,100940.65
2022-12-19T20:32:53.542Z,100944.08
2022-12-19T20:37:56.357Z,100944.93
2022-12-19T20:42:59.081Z,100956.52
2022-12-19T20:48:02.183Z,100960.63
2022-12-19T20:53:04.980Z,100956.55
2022-12-19T20:58:07.763Z,100948.52
2022-12-19T21:03:27.560Z,100938.44
2022-12-19T21:08:32.057Z,100935.17
2022-12-19T21:13:36.243Z,100934.15
2022-12-19T21:18:41.235Z,100929.54
2022-12-19T21:23:44.983Z,100911.66
2022-12-19T21:28:47.809Z,100890.53
2022-12-19T21:33:53.576Z,100883.20
2022-12-19T21:38:59.171Z,100879.61
2022-12-19T21:44:02.128Z,100880.31
2022-12-19T21:49:05.153Z,100872.30
2022-12-19T21:54:09.689Z,100863.27
2022-12-19T21:59:14.651Z,100859.17
2022-12-19T22:04:23.801Z,100855.95
2022-12-19T22:09:26.644Z,100840.08
2022-12-19T22:14:29.392Z,100816.20
2022-12-19T22:19:32.208Z,100803.41
2022-12-19T22:24:35.315Z,100801.19
2022-12-19T22:29:38.111Z,100792.81
2022-12-19T22:34:40.925Z,100794.70
2022-12-19T22:39:43.646Z,100784.61
2022-12-19T22:44:46.412Z,100778.80
2022-12-19T22:49:52.499Z,100773.81
2022-12-19T22:54:55.184Z,100772.42
2022-12-19T22:59:57.892Z,100767.78
2022-12-19T23:05:00.766Z,100759.20
2022-12-19T23:10:03.989Z,100749.80
2022-12-19T23:15:07.616Z,100733.02
2022-12-19T23:20:11.030Z,100730.58
2022-12-19T23:25:13.896Z,100723.70
2022-12-19T23:30:16.856Z,100722.45
2022-12-19T23:35:19.547Z,100716.42
2022-12-19T23:40:22.362Z,100713.30
2022-12-19T23:45:25.217Z,100701.96
2022-12-19T23:50:28.317Z,100689.92
2022-12-19T23:55:31.058Z,100685.59
